Friday, September 21, 2018, 9:29 PM EDT
Back to Local

KCAR, Caribou Municipal Airport

Location: Caribou, ME, United States Lat: 46.867
Local Time: 9:29 PM EDT ( 1:29 GMT) Lon: -68.017
Time Zone: US/Eastern Elev: 626 ft

Show me the last for .
Show Decoded

2018-09-21 20:54 METAR KCAR 220054Z AUTO 18014G23KT 10SM OVC012 13/11 A2970 RMK AO2 PK WND
                 18032/0028 PRESFR SLP064 T01330106 =
2018-09-21 19:54 METAR KCAR 212354Z AUTO 18021G32KT 10SM OVC011 12/09 A2977 RMK AO2 PK WND
                 18032/2353 LTG DSNT NE SLP088 60007 T01220094 10122 20111 58036 =
2018-09-21 18:54 METAR KCAR 212254Z AUTO 18016G27KT 10SM OVC012 11/09 A2982 RMK AO2 PK WND
                 17027/2247 RAE46 SLP103 P0000 T01110089 =
2018-09-21 18:34 METAR KCAR 212234Z AUTO 17017G25KT 6SM -RA BR OVC014 11/09 A2982 RMK AO2 P0000
                 T01110089 =
2018-09-21 17:54 METAR KCAR 212154Z AUTO 17018G26KT 8SM -RA OVC020 12/09 A2984 RMK AO2 PK WND
                 19030/2107 SLP112 P0003 T01170094 =
2018-09-21 16:54 METAR KCAR 212054Z AUTO 18018G26KT 7SM -RA OVC026 12/09 A2988 RMK AO2 PK WND
                 18027/2002 RAB34 SLP125 P0001 60004 T01170089 57054 =
2018-09-21 16:17 METAR KCAR 212017Z AUTO 18016G22KT 10SM FEW014 BKN018 OVC030 12/10 A2992 RMK AO2
                 PK WND 18027/2002 T01220100 =
2018-09-21 15:54 METAR KCAR 211954Z AUTO 17015G26KT 10SM BKN014 BKN021 OVC042 12/10 A2993 RMK AO2
                 PK WND 16034/1916 RAE45 SLP142 P0001 T01220100 =
2018-09-21 14:54 METAR KCAR 211854Z AUTO 17016G25KT 6SM -RA BR BKN012 BKN022 OVC029 12/11 A2999
                 RMK AO2 SLP162 P0002 T01220106 =
2018-09-21 14:25 METAR KCAR 211825Z AUTO 16017G23KT 3SM -RA BR BKN014 OVC021 12/11 A3002 RMK AO2
                 P0000 T01220106 =
2018-09-21 14:08 METAR KCAR 211808Z AUTO 16012G21KT 10SM -RA SCT015 BKN027 OVC070 12/11 A3003 RMK
                 AO2 PRESFR P0000 T01220106 =
2018-09-21 13:54 METAR KCAR 211754Z AUTO 16013KT 9SM -RA FEW027 OVC070 12/11 A3004 RMK AO2 SLP181
                 P0002 60002 T01220106 10122 20083 58048 =
2018-09-21 12:54 METAR KCAR 211654Z AUTO 17013G20KT 10SM -RA OVC090 12/10 A3010 RMK AO2 RAB04
                 SLP200 P0000 T01220100 =
2018-09-21 12:24 METAR KCAR 211624Z AUTO 16012G21KT 10SM -RA SCT008 SCT033 OVC095 12/10 A3012 RMK
                 AO2 RAB04 PRESFR P0000 T01170100 =
2018-09-21 11:54 METAR KCAR 211554Z AUTO 16012KT 10SM OVC006 11/09 A3014 RMK AO2 PRESFR SLP214
                 T01110094 =
2018-09-21 10:54 METAR KCAR 211454Z AUTO 16010KT 10SM OVC007 11/09 A3019 RMK AO2 CIG 005V009
                 SLP230 T01060094 58024 =
2018-09-21 10:28 METAR KCAR 211428Z AUTO 16010KT 10SM BKN007 BKN018 OVC036 10/09 A3020 RMK AO2
                 CIG 006V010 T01000089 =
2018-09-21 09:54 METAR KCAR 211354Z AUTO 17007KT 10SM SCT003 SCT036 10/09 A3022 RMK AO2 SLP241
                 T01000089 =
2018-09-21 09:01 METAR KCAR 211301Z AUTO 14006KT 10SM OVC002 09/08 A3024 RMK AO2 T00940083 =
2018-09-21 08:54 METAR KCAR 211254Z AUTO 14005KT 2SM BR OVC002 09/08 A3024 RMK AO2 SLP248
                 T00890083 =
2018-09-21 07:54 METAR KCAR 211154Z AUTO 18006KT M1/4SM FG VV002 08/08 A3026 RMK AO2 SLP255
                 T00830078 10083 20067 56005 =
2018-09-21 06:54 METAR KCAR 211054Z AUTO 15005KT M1/4SM FG VV002 08/07 A3026 RMK AO2 SLP254
                 T00780072 =
2018-09-21 05:54 METAR KCAR 210954Z AUTO 00000KT 1/4SM FG VV002 07/07 A3027 RMK AO2 SLP257
                 T00720067 =
2018-09-21 04:54 METAR KCAR 210854Z AUTO 00000KT 1/4SM FG VV002 07/06 A3028 RMK AO2 SLP259
                 T00720061 56008 =
2018-09-21 03:54 METAR KCAR 210754Z AUTO 00000KT 1/4SM FG VV002 07/07 A3028 RMK AO2 SLP261
                 T00720067 =
2018-09-21 02:54 METAR KCAR 210654Z AUTO VRB03KT 1/4SM FG VV002 07/07 A3029 RMK AO2 SLP263
                 T00720067 =
2018-09-21 01:54 METAR KCAR 210554Z AUTO 00000KT 1/4SM FG VV002 07/06 A3030 RMK AO2 SLP267
                 T00670056 10106 20067 58001 =
2018-09-21 00:54 METAR KCAR 210454Z AUTO 00000KT 1/2SM FG VV002 07/06 A3030 RMK AO2 SLP269
                 T00670061 401440067 =
2018-09-20 23:54 METAR KCAR 210354Z AUTO 00000KT 1/4SM FG VV001 07/06 A3030 RMK AO2 SLP267
                 T00720061 =
2018-09-20 22:54 METAR KCAR 210254Z AUTO 00000KT 1/4SM FG VV001 08/07 A3030 RMK AO2 SLP269
                 T00780067 51007 =
2018-09-20 22:13 METAR KCAR 210213Z AUTO 26003KT 3/4SM BR VV001 09/08 A3030 RMK AO2 T00890078 =
2018-09-20 22:08 METAR KCAR 210208Z AUTO 26003KT 1 1/4SM BR FEW002 09/08 A3030 RMK AO2 T00890078
                 =
2018-09-20 21:56 METAR KCAR 210156Z AUTO 00000KT 3/4SM BR VV002 08/07 A3029 RMK AO2 T00830072 =
2018-09-20 21:54 METAR KCAR 210154Z AUTO 00000KT 1 1/4SM BR FEW002 08/08 A3029 RMK AO2 SLP265
                 T00830078 =
2018-09-20 21:52 METAR KCAR 210152Z AUTO 00000KT 2SM BR FEW002 09/08 A3029 RMK AO2 =

Support USWX by starting your Amazon purchase here.